This is the latest recevied weather packets stored in our database for station/object W4DEX-2. If no packets are shown the sender has not sent any weather packets the latest 10 day(s).
| Time | Temp. | Humidity | Pressure | Rain* | Wind** | Luminosity | Snow |
|---|---|---|---|---|---|---|---|
| 1777998902 | 24.44° C | 34% | 1015.9 hPa | 0 mm | 3.13 m/s, 180° | - | - |
| 1777998302 | 24.44° C | 38% | 1015.9 hPa | 0 mm | 4.02 m/s, 180° | - | - |
| 1777998002 | 24.44° C | 39% | 1016.1 hPa | 0 mm | 4.92 m/s, 170° | - | - |
| 1777997402 | 23.89° C | 39% | 1016.1 hPa | 0 mm | 4.92 m/s, 183° | - | - |
| 1777997102 | 24.44° C | 38% | 1016.1 hPa | 0 mm | 4.02 m/s, 189° | - | - |
| 1777995302 | 22.78° C | 44% | 1016.5 hPa | 0 mm | 4.92 m/s, 184° | - | - |
| 1777994402 | 22.22° C | 49% | 1016.4 hPa | 0 mm | 4.92 m/s, 170° | - | - |
| 1777994102 | 22.22° C | 48% | 1016.5 hPa | 0 mm | 4.02 m/s, 179° | - | - |
| 1777993802 | 21.67° C | 47% | 1016.8 hPa | 0 mm | 4.02 m/s, 183° | - | - |
| 1777993502 | 21.67° C | 50% | 1016.6 hPa | 0 mm | 4.47 m/s, 179° | - | - |
| 1777993203 | 21.67° C | 50% | 1016.9 hPa | 0 mm | 4.92 m/s, 181° | - | - |
| 1777992602 | 21.11° C | 53% | 1016.6 hPa | 0 mm | 4.92 m/s, 186° | - | - |
| 1777992304 | 21.11° C | 53% | 1016.6 hPa | 0 mm | 4.92 m/s, 186° | - | - |
| 1777992005 | 21.11° C | 53% | 1016.4 hPa | 0 mm | 4.92 m/s, 196° | - | - |
| 1777991702 | 21.11° C | 55% | 1016.3 hPa | 0 mm | 4.47 m/s, 185° | - | - |
| 1777991402 | 20.56° C | 55% | 1016.2 hPa | 0 mm | 3.13 m/s, 187° | - | - |
| 1777990502 | 20° C | 58% | 1016.4 hPa | 0 mm | 3.58 m/s, 185° | - | - |
| 1777989902 | 19.44° C | 60% | 1016.6 hPa | 0 mm | 4.02 m/s, 177° | - | - |
| 1777989602 | 19.44° C | 60% | 1016.4 hPa | 0 mm | 5.36 m/s, 169° | - | - |
| 1777989303 | 19.44° C | 60% | 1016.5 hPa | 0 mm | 4.92 m/s, 170° | - | - |
| 1777988702 | 18.33° C | 63% | 1016.4 hPa | 0 mm | 5.81 m/s, 187° | - | - |
| 1777988402 | 17.78° C | 64% | 1016.4 hPa | 0 mm | 4.92 m/s, 180° | - | - |
| 1777988102 | 17.78° C | 65% | 1016.4 hPa | 0 mm | 4.47 m/s, 170° | - | - |
| 1777987802 | 17.78° C | 65% | 1016.4 hPa | 0 mm | 5.81 m/s, 165° | - | - |
| 1777987202 | 17.22° C | 67% | 1016.4 hPa | 0 mm | 4.47 m/s, 181° | - | - |
* Rain latest hour (hover to see other rain measurements)
** Current wind speed in m/s (hover to see current wind gust speed)